Kejimkujik National Park, Canada
Current Conditions -  °F | °C
As of 11:00 PM on Wednesday 22 Oct 2014 (Local Time) from CYZX Reporting Station
Light Rain Light Rain  
Wind Chill: 50°   Ceiling: 1000
Heat Index: 50°   Visibility: 5mi
Dew Point: 48°   Wind: 21mph
Humidity: 94%   Direction: 70°ENE
Pressure: 30.17"   Gusts: 32mph
Location:  44.37°N, 65.26°W
Report Text: CYZX 230200Z 07018G28KT 5SM -RA BR BKN010 OVC018 10/09 A3017 RMK SC6SC2 WNDY HILL 25G33KT SLP217
Loading
Personal Weather Stations






























Interactive Weather Map
Tropical Storm Tracking
New forecast layout! Learn more

10-Day Weather Forecast

Advertisements
Track Severe Weather on mobile